createdAt,value
2023-05-05T00:01:00.990Z,102427.38
2023-05-05T00:03:29.989Z,102407.06
2023-05-05T00:05:57.450Z,102404.91
2023-05-05T00:08:24.305Z,102406.22
2023-05-05T00:10:52.880Z,102393.78
2023-05-05T00:13:20.914Z,102407.34
2023-05-05T00:15:49.591Z,102394.16
2023-05-05T00:18:17.878Z,102384.44
2023-05-05T00:20:47.246Z,102381.94
2023-05-05T00:23:14.809Z,102391.72
2023-05-05T00:25:41.610Z,102389.00
2023-05-05T00:28:08.435Z,102387.50
2023-05-05T00:30:35.096Z,102390.91
2023-05-05T00:33:01.874Z,102387.41
2023-05-05T00:35:28.623Z,102387.16
2023-05-05T00:37:55.349Z,102391.19
2023-05-05T00:40:22.148Z,102384.53
2023-05-05T00:42:51.345Z,102398.63
2023-05-05T00:45:19.825Z,102386.34
2023-05-05T00:47:52.612Z,102385.34
2023-05-05T00:50:24.547Z,102381.59
2023-05-05T00:52:54.209Z,102368.44
2023-05-05T00:55:21.748Z,102377.34
2023-05-05T00:57:49.343Z,102377.47
2023-05-05T01:00:16.848Z,102374.63
2023-05-05T01:02:44.682Z,102370.03
2023-05-05T01:05:13.759Z,102367.28
2023-05-05T01:07:50.722Z,102365.72
2023-05-05T01:10:36.981Z,102372.06
2023-05-05T01:13:32.580Z,102365.72
2023-05-05T01:16:09.191Z,102370.16
2023-05-05T01:18:44.956Z,102366.69
2023-05-05T01:21:47.059Z,102374.13
2023-05-05T01:24:16.657Z,102363.03
2023-05-05T01:26:58.221Z,102363.28
2023-05-05T01:29:37.050Z,102370.94
2023-05-05T01:32:09.647Z,102371.66
2023-05-05T01:35:00.192Z,102371.06
2023-05-05T01:37:50.765Z,102366.25
2023-05-05T01:40:25.336Z,102366.38
2023-05-05T01:42:56.780Z,102357.56
2023-05-05T01:45:28.775Z,102357.56
2023-05-05T01:47:57.311Z,102352.91
2023-05-05T01:50:26.705Z,102349.81
2023-05-05T01:52:54.390Z,102361.34
2023-05-05T01:55:25.024Z,102339.66
2023-05-05T01:57:53.111Z,102348.81
2023-05-05T02:00:21.378Z,102345.06
2023-05-05T02:02:49.911Z,102339.78
2023-05-05T02:05:19.594Z,102351.13
2023-05-05T02:07:46.815Z,102353.44
2023-05-05T02:10:14.701Z,102352.94
2023-05-05T02:12:43.049Z,102349.75
2023-05-05T02:15:10.798Z,102347.03
2023-05-05T02:17:40.657Z,102341.38
2023-05-05T02:20:09.460Z,102338.91
2023-05-05T02:22:36.407Z,102346.09
2023-05-05T02:25:03.466Z,102327.13
2023-05-05T02:27:33.939Z,102328.94
2023-05-05T02:30:06.907Z,102332.69
2023-05-05T02:32:39.491Z,102337.50
2023-05-05T02:35:19.786Z,102324.81
2023-05-05T02:37:56.152Z,102334.75
2023-05-05T02:40:26.411Z,102338.53
2023-05-05T02:42:56.342Z,102330.28
2023-05-05T02:45:24.927Z,102332.22
2023-05-05T02:47:51.639Z,102336.75
2023-05-05T02:50:18.730Z,102310.31
2023-05-05T02:52:45.966Z,102315.59
2023-05-05T02:55:13.381Z,102333.28
2023-05-05T02:57:52.311Z,102309.72
2023-05-05T03:00:31.387Z,102320.75
2023-05-05T03:03:16.231Z,102302.94
2023-05-05T03:05:54.418Z,102299.66
2023-05-05T03:08:29.486Z,102298.16
2023-05-05T03:11:12.444Z,102284.22
2023-05-05T03:13:42.974Z,102268.22
2023-05-05T03:16:11.825Z,102277.44
2023-05-05T03:18:42.317Z,102281.50
2023-05-05T03:21:09.582Z,102273.81
2023-05-05T03:23:36.696Z,102271.13
2023-05-05T03:26:03.529Z,102262.19
2023-05-05T03:28:30.201Z,102272.28
2023-05-05T03:30:57.031Z,102270.38
2023-05-05T03:33:29.443Z,102263.88
2023-05-05T03:35:56.297Z,102270.00
2023-05-05T03:38:23.066Z,102264.06
2023-05-05T03:40:49.798Z,102259.56
2023-05-05T03:43:16.870Z,102264.50
2023-05-05T03:45:43.532Z,102256.75
2023-05-05T03:48:10.250Z,102270.25
2023-05-05T03:50:37.689Z,102236.84
2023-05-05T03:53:04.370Z,102245.06
2023-05-05T03:55:31.077Z,102248.84
2023-05-05T03:57:57.735Z,102253.50
2023-05-05T04:00:24.475Z,102250.28
2023-05-05T04:02:51.352Z,102247.91
2023-05-05T04:05:19.818Z,102252.41
2023-05-05T04:07:46.474Z,102264.75
2023-05-05T04:10:13.111Z,102252.94
2023-05-05T04:12:39.820Z,102263.75
2023-05-05T04:15:07.029Z,102254.13
2023-05-05T04:17:33.726Z,102256.38
2023-05-05T04:20:00.674Z,102241.03
2023-05-05T04:22:27.403Z,102251.72
2023-05-05T04:24:54.224Z,102250.59
2023-05-05T04:27:20.980Z,102254.19
2023-05-05T04:29:47.637Z,102254.31
2023-05-05T04:32:14.318Z,102242.66
2023-05-05T04:34:41.414Z,102247.13
2023-05-05T04:37:08.096Z,102254.19
2023-05-05T04:39:34.962Z,102254.19
2023-05-05T04:42:02.325Z,102257.91
2023-05-05T04:44:29.084Z,102253.09
2023-05-05T04:46:55.851Z,102260.53
2023-05-05T04:49:22.662Z,102263.81
2023-05-05T04:51:49.372Z,102255.69
2023-05-05T04:54:16.192Z,102255.53
2023-05-05T04:56:42.940Z,102249.13
2023-05-05T04:59:09.608Z,102256.63
2023-05-05T05:01:38.824Z,102264.34
2023-05-05T05:04:05.657Z,102267.50
2023-05-05T05:06:32.536Z,102263.91
2023-05-05T05:08:59.258Z,102259.88
2023-05-05T05:11:26.431Z,102262.41
2023-05-05T05:13:53.258Z,102249.06
2023-05-05T05:16:20.245Z,102251.03
2023-05-05T05:18:46.977Z,102260.72
2023-05-05T05:21:13.676Z,102263.56
2023-05-05T05:23:40.392Z,102265.59
2023-05-05T05:26:07.258Z,102270.91
2023-05-05T05:28:33.895Z,102258.00
2023-05-05T05:31:00.642Z,102273.13
2023-05-05T05:33:27.340Z,102270.16
2023-05-05T05:35:55.362Z,102269.69
2023-05-05T05:38:22.082Z,102271.59
2023-05-05T05:40:48.720Z,102266.44
2023-05-05T05:43:15.389Z,102264.88
2023-05-05T05:45:43.088Z,102271.50
2023-05-05T05:48:09.848Z,102252.25
2023-05-05T05:50:36.572Z,102234.06
2023-05-05T05:53:03.273Z,102255.13
2023-05-05T05:55:29.973Z,102243.31
2023-05-05T05:57:56.685Z,102249.84
2023-05-05T06:00:23.723Z,102249.84
2023-05-05T06:02:51.694Z,102256.63
2023-05-05T06:05:18.540Z,102251.41
2023-05-05T06:07:45.336Z,102242.91
2023-05-05T06:10:26.520Z,102270.13
2023-05-05T06:12:56.630Z,102250.72
2023-05-05T06:15:23.523Z,102241.59
2023-05-05T06:17:50.310Z,102236.34
2023-05-05T06:20:18.658Z,102244.69
2023-05-05T06:22:45.370Z,102229.44
2023-05-05T06:25:12.074Z,102229.50
2023-05-05T06:27:38.769Z,102225.66
2023-05-05T06:30:07.048Z,102226.47
2023-05-05T06:32:33.985Z,102225.16
2023-05-05T06:35:00.977Z,102232.81
2023-05-05T06:37:27.718Z,102219.34
2023-05-05T06:39:54.405Z,102217.03
2023-05-05T06:42:21.207Z,102214.94
2023-05-05T06:44:47.934Z,102230.72
2023-05-05T06:47:14.663Z,102196.09
2023-05-05T06:49:41.527Z,102195.06
2023-05-05T06:52:08.422Z,102184.53
2023-05-05T06:54:35.122Z,102199.59
2023-05-05T06:57:04.400Z,102190.44
2023-05-05T06:59:31.157Z,102183.88
2023-05-05T07:01:57.906Z,102187.94
2023-05-05T07:07:11.258Z,102194.50
2023-05-05T07:09:41.301Z,102192.16
2023-05-05T07:12:08.004Z,102198.06
2023-05-05T07:14:34.650Z,102210.59
2023-05-05T07:17:01.581Z,102215.50
2023-05-05T07:19:28.328Z,102218.16
2023-05-05T07:21:55.117Z,102216.13
2023-05-05T07:24:21.808Z,102208.63
2023-05-05T07:26:49.044Z,102219.06
2023-05-05T07:29:15.795Z,102218.69
2023-05-05T07:31:42.510Z,102227.16
2023-05-05T07:34:09.208Z,102233.00
2023-05-05T07:36:35.942Z,102215.41
2023-05-05T07:39:02.647Z,102205.97
2023-05-05T07:41:29.623Z,102227.66
2023-05-05T07:43:56.274Z,102225.47
2023-05-05T07:46:23.130Z,102237.63
2023-05-05T07:48:50.422Z,102208.78
2023-05-05T07:51:17.490Z,102219.88
2023-05-05T07:53:44.377Z,102204.59
2023-05-05T07:56:11.172Z,102212.81
2023-05-05T07:58:37.846Z,102203.16
2023-05-05T08:01:06.528Z,102202.09
2023-05-05T08:03:33.529Z,102209.03
2023-05-05T08:06:08.290Z,102205.59
2023-05-05T08:08:35.474Z,102209.38
2023-05-05T08:11:02.646Z,102206.56
2023-05-05T08:13:32.573Z,102218.09
2023-05-05T08:15:59.525Z,102210.88
2023-05-05T08:18:26.592Z,102213.06
2023-05-05T08:20:54.599Z,102214.84
2023-05-05T08:23:21.890Z,102200.59
2023-05-05T08:25:48.640Z,102228.59
2023-05-05T08:28:15.541Z,102209.53
2023-05-05T08:30:46.456Z,102212.19
2023-05-05T08:33:13.638Z,102217.72
2023-05-05T08:35:43.814Z,102240.84
2023-05-05T08:38:11.385Z,102256.47
2023-05-05T08:40:39.705Z,102232.84
2023-05-05T08:43:06.803Z,102226.22
2023-05-05T08:45:33.808Z,102244.88
2023-05-05T08:48:05.525Z,102245.06
2023-05-05T08:50:33.220Z,102249.47
2023-05-05T08:53:15.816Z,102254.69
2023-05-05T08:55:49.863Z,102239.69
2023-05-05T08:58:19.154Z,102229.84
2023-05-05T09:00:46.751Z,102228.47
2023-05-05T09:03:14.619Z,102214.97
2023-05-05T09:05:42.705Z,102221.16
2023-05-05T09:08:11.356Z,102223.56
2023-05-05T09:10:41.673Z,102195.59
2023-05-05T09:13:08.516Z,102205.38
2023-05-05T09:15:35.470Z,102200.00
2023-05-05T09:18:03.619Z,102185.06
2023-05-05T09:20:37.523Z,102191.38
2023-05-05T09:23:10.032Z,102211.72
2023-05-05T09:25:37.240Z,102207.50
2023-05-05T09:28:12.436Z,102224.53
2023-05-05T09:30:40.585Z,102231.25
2023-05-05T09:33:07.473Z,102227.88
2023-05-05T09:35:54.406Z,102224.50
2023-05-05T09:38:24.942Z,102211.53
2023-05-05T09:40:54.899Z,102207.69
2023-05-05T09:43:23.600Z,102208.09
2023-05-05T09:45:52.178Z,102216.88
2023-05-05T09:48:30.643Z,102193.28
2023-05-05T09:51:00.346Z,102206.63
2023-05-05T09:53:37.762Z,102193.06
2023-05-05T09:56:04.771Z,102207.75
2023-05-05T09:58:31.676Z,102212.97
2023-05-05T10:00:59.145Z,102202.44
2023-05-05T10:03:26.319Z,102198.16
2023-05-05T10:05:58.971Z,102184.50
2023-05-05T10:08:28.260Z,102165.31
2023-05-05T10:10:54.940Z,102141.13
2023-05-05T10:13:23.509Z,102156.97
2023-05-05T10:15:55.021Z,102164.00
2023-05-05T10:18:26.044Z,102144.84
2023-05-05T10:21:03.863Z,102157.56
2023-05-05T10:23:49.165Z,102147.22
2023-05-05T10:26:19.679Z,102145.88
2023-05-05T10:28:57.073Z,102124.00
2023-05-05T10:31:41.810Z,102166.47
2023-05-05T10:34:20.967Z,102160.69
2023-05-05T10:36:49.092Z,102155.44
2023-05-05T10:39:19.784Z,102171.91
2023-05-05T10:41:47.399Z,102127.53
2023-05-05T10:44:14.850Z,102143.53
2023-05-05T10:46:42.752Z,102125.59
2023-05-05T10:49:13.438Z,102142.75
2023-05-05T10:51:57.146Z,102141.78
2023-05-05T10:54:32.682Z,102153.66
2023-05-05T10:57:02.630Z,102145.66
2023-05-05T10:59:38.856Z,102146.94
2023-05-05T11:02:38.355Z,102137.97
2023-05-05T11:05:09.774Z,102117.88
2023-05-05T11:07:37.847Z,102123.81
2023-05-05T11:10:06.982Z,102141.94
2023-05-05T11:13:00.089Z,102133.53
2023-05-05T11:15:26.910Z,102143.59
2023-05-05T11:17:54.916Z,102170.00
2023-05-05T11:20:48.022Z,102171.84
2023-05-05T11:23:20.767Z,102174.59
2023-05-05T11:25:47.496Z,102177.34
2023-05-05T11:28:31.471Z,102139.78
2023-05-05T11:31:01.143Z,102137.34
2023-05-05T11:33:29.037Z,102126.97
2023-05-05T11:36:06.823Z,102110.78
2023-05-05T11:38:59.300Z,102144.03
2023-05-05T11:41:51.644Z,102161.50
2023-05-05T11:44:20.163Z,102175.13
2023-05-05T11:46:52.887Z,102168.16
2023-05-05T11:49:29.479Z,102175.56
2023-05-05T11:51:57.613Z,102179.50
2023-05-05T11:54:25.109Z,102189.78
2023-05-05T11:56:54.405Z,102205.88
2023-05-05T11:59:21.864Z,102199.88
2023-05-05T12:01:48.917Z,102185.28
2023-05-05T12:04:16.416Z,102167.22
2023-05-05T12:06:43.799Z,102182.59
2023-05-05T12:09:18.307Z,102178.09
2023-05-05T12:12:03.505Z,102181.44
2023-05-05T12:14:30.265Z,102152.25
2023-05-05T12:17:06.792Z,102187.22
2023-05-05T12:19:33.677Z,102187.75
2023-05-05T12:22:05.135Z,102178.44
2023-05-05T12:24:31.950Z,102173.81
2023-05-05T12:27:08.639Z,102176.16
2023-05-05T12:29:35.343Z,102178.00
2023-05-05T12:32:02.157Z,102152.19
2023-05-05T12:34:29.091Z,102143.41
2023-05-05T12:36:56.025Z,102139.63
2023-05-05T12:39:22.746Z,102135.84
2023-05-05T12:41:49.801Z,102129.84
2023-05-05T12:44:16.564Z,102106.38
2023-05-05T12:46:47.502Z,102110.13
2023-05-05T12:49:14.499Z,102133.03
2023-05-05T12:51:53.437Z,102126.38
2023-05-05T12:54:20.254Z,102141.72
2023-05-05T12:56:47.960Z,102133.19
2023-05-05T12:59:24.105Z,102128.34
2023-05-05T13:02:01.527Z,102141.53
2023-05-05T13:04:28.660Z,102144.81
2023-05-05T13:07:14.483Z,102147.66
2023-05-05T13:09:41.618Z,102168.66
2023-05-05T13:12:14.042Z,102179.41
2023-05-05T13:14:41.529Z,102185.88
2023-05-05T13:17:08.734Z,102180.72
2023-05-05T13:19:42.493Z,102177.28
2023-05-05T13:22:10.173Z,102195.56
2023-05-05T13:24:49.833Z,102217.41
2023-05-05T13:27:18.247Z,102202.06
2023-05-05T13:29:44.901Z,102188.63
2023-05-05T13:32:11.741Z,102185.66
2023-05-05T13:34:39.232Z,102172.94
2023-05-05T13:37:06.363Z,102186.78
2023-05-05T13:39:33.144Z,102186.22
2023-05-05T13:41:59.864Z,102178.88
2023-05-05T13:44:26.613Z,102169.03
2023-05-05T13:46:53.287Z,102188.31
2023-05-05T13:49:20.227Z,102177.97
2023-05-05T13:51:47.232Z,102176.22
2023-05-05T13:54:14.155Z,102175.44
2023-05-05T13:56:40.913Z,102170.63
2023-05-05T13:59:07.621Z,102183.91
2023-05-05T14:01:34.418Z,102164.38
2023-05-05T14:04:04.487Z,102169.25
2023-05-05T14:06:32.699Z,102149.59
2023-05-05T14:08:59.707Z,102155.38
2023-05-05T14:11:26.357Z,102165.75
2023-05-05T14:13:53.068Z,102160.78
2023-05-05T14:16:19.949Z,102164.63
2023-05-05T14:18:46.702Z,102153.34
2023-05-05T14:21:13.463Z,102159.53
2023-05-05T14:23:40.323Z,102144.50
2023-05-05T14:26:08.900Z,102153.66
2023-05-05T14:28:35.980Z,102150.47
2023-05-05T14:31:02.627Z,102154.25
2023-05-05T14:33:29.298Z,102162.72
2023-05-05T14:35:56.030Z,102156.31
2023-05-05T14:38:22.839Z,102164.78
2023-05-05T14:40:49.776Z,102165.41
2023-05-05T14:43:16.515Z,102158.47
2023-05-05T14:45:44.317Z,102176.44
2023-05-05T14:48:13.107Z,102182.28
2023-05-05T14:50:42.225Z,102179.25
2023-05-05T14:53:08.944Z,102185.72
2023-05-05T14:55:35.588Z,102170.47
2023-05-05T14:58:02.264Z,102175.88
2023-05-05T15:00:29.046Z,102183.00
2023-05-05T15:02:56.068Z,102175.81
2023-05-05T15:05:22.953Z,102164.50
2023-05-05T15:07:49.745Z,102144.00
2023-05-05T15:10:16.554Z,102148.19
2023-05-05T15:12:43.528Z,102168.88
2023-05-05T15:15:10.990Z,102168.28
2023-05-05T15:17:38.939Z,102164.47
2023-05-05T15:20:06.951Z,102154.00
2023-05-05T15:22:37.025Z,102156.19
2023-05-05T15:25:04.055Z,102144.94
2023-05-05T15:27:31.764Z,102137.28
2023-05-05T15:29:58.467Z,102132.25
2023-05-05T15:32:25.264Z,102139.03
2023-05-05T15:34:52.007Z,102135.63
2023-05-05T15:37:18.854Z,102137.75
2023-05-05T15:39:45.534Z,102146.88
2023-05-05T15:42:12.205Z,102139.84
2023-05-05T15:44:39.173Z,102098.06
2023-05-05T15:47:07.076Z,102129.13
2023-05-05T15:49:34.008Z,102133.44
2023-05-05T15:52:00.770Z,102140.34
2023-05-05T15:54:27.472Z,102134.09
2023-05-05T15:56:54.232Z,102130.56
2023-05-05T15:59:21.060Z,102152.41
2023-05-05T16:01:47.904Z,102157.81
2023-05-05T16:04:14.682Z,102144.13
2023-05-05T16:06:41.439Z,102139.34
2023-05-05T16:09:08.284Z,102144.25
2023-05-05T16:11:37.178Z,102118.41
2023-05-05T16:14:04.114Z,102137.41
2023-05-05T16:16:30.966Z,102139.56
2023-05-05T16:18:57.644Z,102153.44
2023-05-05T16:21:24.710Z,102119.53
2023-05-05T16:23:51.487Z,102123.25
2023-05-05T16:26:18.455Z,102119.91
2023-05-05T16:28:45.285Z,102105.69
2023-05-05T16:31:13.480Z,102109.28
2023-05-05T16:33:41.294Z,102105.13
2023-05-05T16:36:12.392Z,102112.31
2023-05-05T16:38:40.510Z,102105.28
2023-05-05T16:41:07.668Z,102106.78
2023-05-05T16:43:35.953Z,102109.44
2023-05-05T16:46:03.786Z,102116.94
2023-05-05T16:48:30.685Z,102117.50
2023-05-05T16:50:57.922Z,102115.91
2023-05-05T16:53:25.469Z,102110.47
2023-05-05T16:55:53.135Z,102124.09
2023-05-05T16:58:22.866Z,102128.00
2023-05-05T17:00:50.448Z,102129.97
2023-05-05T17:03:20.835Z,102145.38
2023-05-05T17:05:50.149Z,102137.44
2023-05-05T17:08:17.321Z,102144.94
2023-05-05T17:10:48.089Z,102137.09
2023-05-05T17:13:15.364Z,102126.53
2023-05-05T17:15:43.566Z,102141.97
2023-05-05T17:18:10.455Z,102133.03
2023-05-05T17:20:37.200Z,102159.50
2023-05-05T17:23:03.943Z,102123.16
2023-05-05T17:25:31.340Z,102110.31
2023-05-05T17:27:58.224Z,102113.09
2023-05-05T17:30:25.104Z,102118.81
2023-05-05T17:32:51.910Z,102119.06
2023-05-05T17:35:18.939Z,102113.78
2023-05-05T17:37:45.725Z,102114.06
2023-05-05T17:40:12.653Z,102118.59
2023-05-05T17:42:39.407Z,102114.78
2023-05-05T17:45:06.747Z,102119.47
2023-05-05T17:47:34.956Z,102115.06
2023-05-05T17:50:01.850Z,102124.03
2023-05-05T17:52:28.647Z,102121.44
2023-05-05T17:54:55.475Z,102138.47
2023-05-05T17:57:22.877Z,102145.09
2023-05-05T17:59:50.398Z,102149.06
2023-05-05T18:02:17.416Z,102149.00
2023-05-05T18:04:44.133Z,102141.91
2023-05-05T18:07:12.262Z,102148.03
2023-05-05T18:09:39.176Z,102145.16
2023-05-05T18:12:07.583Z,102153.97
2023-05-05T18:14:34.398Z,102162.47
2023-05-05T18:17:01.354Z,102153.00
2023-05-05T18:19:28.056Z,102161.25
2023-05-05T18:21:54.705Z,102161.56
2023-05-05T18:24:21.392Z,102161.84
2023-05-05T18:26:50.525Z,102171.22
2023-05-05T18:29:21.875Z,102179.53
2023-05-05T18:31:51.566Z,102171.47
2023-05-05T18:34:20.489Z,102178.00
2023-05-05T18:36:48.307Z,102183.56
2023-05-05T18:39:15.288Z,102173.44
2023-05-05T18:41:42.081Z,102178.16
2023-05-05T18:44:10.804Z,102169.59
2023-05-05T18:46:37.540Z,102158.09
2023-05-05T18:49:04.419Z,102168.22
2023-05-05T18:51:32.172Z,102162.94
2023-05-05T18:54:00.129Z,102171.16
2023-05-05T18:56:27.040Z,102167.38
2023-05-05T18:58:53.763Z,102158.47
2023-05-05T19:01:20.709Z,102168.53
2023-05-05T19:03:48.095Z,102176.91
2023-05-05T19:06:15.254Z,102172.22
2023-05-05T19:08:42.658Z,102163.53
2023-05-05T19:11:09.897Z,102158.94
2023-05-05T19:16:03.295Z,102151.03
2023-05-05T19:18:29.987Z,102146.72
2023-05-05T19:20:56.785Z,102148.59
2023-05-05T19:23:23.500Z,102138.75
2023-05-05T19:25:53.529Z,102154.84
2023-05-05T19:28:20.383Z,102136.03
2023-05-05T19:30:48.587Z,102142.28
2023-05-05T19:33:16.074Z,102144.00
2023-05-05T19:35:43.355Z,102130.19
2023-05-05T19:38:10.373Z,102125.59
2023-05-05T19:40:38.358Z,102127.91
2023-05-05T19:43:05.228Z,102117.97
2023-05-05T19:45:31.921Z,102118.28
2023-05-05T19:48:02.998Z,102113.47
2023-05-05T19:50:30.651Z,102094.84
2023-05-05T19:52:57.849Z,102088.63
2023-05-05T19:55:24.657Z,102093.16
2023-05-05T19:57:51.385Z,102082.16
2023-05-05T20:00:18.701Z,102085.56
2023-05-05T20:02:45.760Z,102076.03
2023-05-05T20:05:17.358Z,102070.78
2023-05-05T20:07:46.844Z,102071.66
2023-05-05T20:10:13.821Z,102061.81
2023-05-05T20:12:48.287Z,102050.06
2023-05-05T20:15:18.794Z,102057.47
2023-05-05T20:17:46.942Z,102052.88
2023-05-05T20:20:19.991Z,102044.31
2023-05-05T20:22:47.621Z,102020.00
2023-05-05T20:25:16.206Z,102023.66
2023-05-05T20:27:43.496Z,102031.88
2023-05-05T20:30:13.741Z,102011.13
2023-05-05T20:32:41.440Z,102010.28
2023-05-05T20:35:09.001Z,101994.81
2023-05-05T20:37:35.780Z,101982.38
2023-05-05T20:40:02.561Z,101976.13
2023-05-05T20:42:29.787Z,101951.72
2023-05-05T20:44:56.778Z,101947.25
2023-05-05T20:47:24.366Z,101939.72
2023-05-05T20:49:52.371Z,101937.97
2023-05-05T20:52:19.308Z,101939.03
2023-05-05T20:54:46.044Z,101939.78
2023-05-05T20:57:12.749Z,101926.34
2023-05-05T20:59:39.427Z,101926.50
2023-05-05T21:02:06.187Z,101930.81
2023-05-05T21:04:32.979Z,101924.63
2023-05-05T21:06:59.565Z,101918.28
2023-05-05T21:09:26.286Z,101911.09
2023-05-05T21:11:53.022Z,101912.16
2023-05-05T21:14:19.813Z,101897.03
2023-05-05T21:16:46.544Z,101898.94
2023-05-05T21:19:13.183Z,101898.19
2023-05-05T21:21:40.018Z,101891.91
2023-05-05T21:24:08.011Z,101898.41
2023-05-05T21:26:34.938Z,101865.97
2023-05-05T21:29:01.663Z,101863.16
2023-05-05T21:31:28.402Z,101863.13
2023-05-05T21:33:55.155Z,101842.38
2023-05-05T21:36:21.899Z,101838.72
2023-05-05T21:38:49.568Z,101834.28
2023-05-05T21:41:16.778Z,101838.19
2023-05-05T21:43:43.435Z,101827.38
2023-05-05T21:46:10.196Z,101824.41
2023-05-05T21:48:38.838Z,101827.19
2023-05-05T21:51:06.735Z,101823.78
2023-05-05T21:53:33.406Z,101829.06
2023-05-05T21:56:00.230Z,101820.16
2023-05-05T21:58:26.924Z,101814.06
2023-05-05T22:00:56.143Z,101817.66
2023-05-05T22:03:23.215Z,101806.66
2023-05-05T22:05:49.998Z,101794.34
2023-05-05T22:08:17.508Z,101811.38
2023-05-05T22:10:44.281Z,101771.91
2023-05-05T22:13:11.227Z,101782.81
2023-05-05T22:15:45.975Z,101793.53
2023-05-05T22:18:14.397Z,101791.16
2023-05-05T22:20:41.188Z,101776.53
2023-05-05T22:23:08.056Z,101776.38
2023-05-05T22:25:35.071Z,101772.91
2023-05-05T22:28:01.800Z,101766.31
2023-05-05T22:30:28.526Z,101758.47
2023-05-05T22:32:55.307Z,101759.97
2023-05-05T22:35:24.426Z,101753.59
2023-05-05T22:37:51.071Z,101750.31
2023-05-05T22:40:17.751Z,101744.72
2023-05-05T22:42:44.553Z,101735.44
2023-05-05T22:45:11.697Z,101732.31
2023-05-05T22:47:38.635Z,101731.34
2023-05-05T22:50:07.553Z,101720.56
2023-05-05T22:52:34.206Z,101715.28
2023-05-05T22:55:01.001Z,101689.09
2023-05-05T22:57:27.646Z,101681.00
2023-05-05T22:59:54.281Z,101679.97
2023-05-05T23:02:23.960Z,101678.16
2023-05-05T23:04:51.203Z,101579.13
2023-05-05T23:07:18.285Z,101568.22
2023-05-05T23:09:46.118Z,101566.44
2023-05-05T23:12:12.840Z,101556.47
2023-05-05T23:14:39.583Z,101557.59
2023-05-05T23:17:06.406Z,101547.75
2023-05-05T23:19:33.183Z,101529.63
2023-05-05T23:22:00.185Z,101475.31
2023-05-05T23:24:27.814Z,101472.63
2023-05-05T23:26:56.143Z,101466.06
2023-05-05T23:29:22.816Z,101460.06
2023-05-05T23:31:49.569Z,101456.63
2023-05-05T23:34:16.357Z,101442.03
2023-05-05T23:36:43.295Z,101432.41
2023-05-05T23:39:10.304Z,101424.84
2023-05-05T23:41:36.987Z,101359.19
2023-05-05T23:44:03.781Z,101355.34
2023-05-05T23:46:30.664Z,101354.91
2023-05-05T23:48:57.414Z,101339.22
2023-05-05T23:51:24.129Z,101345.69
2023-05-05T23:53:50.791Z,101339.66
2023-05-05T23:56:17.550Z,101336.44
2023-05-05T23:58:44.180Z,101322.16
